This is the latest recevied weather packets stored in our database for station/object GW7287. If no packets are shown the sender has not sent any weather packets the latest 10 day(s).
| Time | Temp. | Humidity | Pressure | Rain* | Wind** | Luminosity | Snow |
|---|---|---|---|---|---|---|---|
| 1787404094 | 29.44° C | 29% | 929.8 hPa | - | - | - | - |
| 1787401496 | 27.22° C | 34% | 930.3 hPa | - | - | - | - |
| 1787401189 | 27.22° C | 34% | 930.3 hPa | - | - | - | - |
| 1787398991 | 27.22° C | 34% | 930.3 hPa | - | - | - | - |
| 1787397269 | 24.44° C | 44% | 930.6 hPa | - | - | - | - |
| 1787397151 | 24.44° C | 44% | 930.6 hPa | - | - | - | - |
| 1787395619 | 24.44° C | 44% | 930.6 hPa | - | - | - | - |
| 1787393779 | 20.56° C | 55% | 930.6 hPa | - | - | - | - |
| 1787393596 | 20.56° C | 55% | 930.6 hPa | - | - | - | - |
| 1787392155 | 20.56° C | 55% | 930.6 hPa | - | - | - | - |
| 1787390406 | 17.78° C | 65% | 930.8 hPa | - | - | - | - |
| 1787390286 | 17.78° C | 65% | 930.8 hPa | - | - | - | - |
| 1787388896 | 17.78° C | 65% | 930.8 hPa | - | - | - | - |
| 1787386823 | 15° C | 76% | 930.8 hPa | - | - | - | - |
| 1787386663 | 15° C | 76% | 930.8 hPa | - | - | - | - |
| 1787385164 | 15° C | 76% | 930.8 hPa | - | - | - | - |
| 1787383425 | 13.89° C | 79% | 930.5 hPa | - | - | - | - |
| 1787382566 | 13.89° C | 79% | 930.5 hPa | - | - | - | - |
| 1787380092 | 13.89° C | 78% | 930.2 hPa | - | - | - | - |
| 1787379773 | 13.89° C | 78% | 930.2 hPa | - | - | - | - |
| 1787377985 | 13.89° C | 78% | 930.2 hPa | - | - | - | - |
| 1787376453 | 14.44° C | 77% | 930.2 hPa | - | - | - | - |
| 1787375905 | 14.44° C | 77% | 930.2 hPa | - | - | - | - |
| 1787374669 | 14.44° C | 77% | 930.2 hPa | - | - | - | - |
| 1787372598 | 15° C | 74% | 930.3 hPa | - | - | - | - |
* Rain since midnight (hover to see other rain measurements)
** Current wind speed in m/s (hover to see current wind gust speed)